Time;durP1;ratioP1;P1;durP2;ratioP2;P2;SDS_P1;SDS_P2;PMS_P1;PMS_P2;Temp;Humidity;BMP_temperature;BMP_pressure;BME280_temperature;BME280_humidity;BME280_pressure;Samples;Min_cycle;Max_cycle;Signal;HPM_P1;HPM_P2
2021/09/19 00:02:04;;;;;;;5.90;2.42;;;;;;;23.90;41.15;100949.22;5072823;28;20029;-74
2021/09/19 00:04:30;;;;;;;5.60;2.40;;;;;;;23.94;41.14;100950.00;5072631;28;20024;-74
2021/09/19 00:06:56;;;;;;;6.78;2.38;;;;;;;23.83;41.54;100955.59;5072758;28;20029;-74
2021/09/19 00:09:22;;;;;;;5.55;2.35;;;;;;;23.85;41.42;100955.19;5072697;28;20081;-74
2021/09/19 00:11:48;;;;;;;5.40;1.90;;;;;;;23.82;41.31;100961.56;5072658;28;20071;-74
2021/09/19 00:14:15;;;;;;;6.45;2.00;;;;;;;23.94;40.93;100944.41;5072668;28;20071;-74
2021/09/19 00:16:42;;;;;;;9.32;2.50;;;;;;;23.93;41.00;100943.63;5072546;28;20483;-74
2021/09/19 00:19:08;;;;;;;4.00;2.00;;;;;;;23.94;41.03;100941.63;5072125;28;20452;-74
2021/09/19 00:21:33;;;;;;;5.97;2.50;;;;;;;23.93;41.01;100943.63;5072580;28;20020;-74
2021/09/19 00:23:59;;;;;;;9.10;2.28;;;;;;;23.95;40.76;100946.78;5072659;28;20020;-74
2021/09/19 00:26:24;;;;;;;5.28;2.38;;;;;;;23.96;40.83;100947.63;5072457;28;20075;-74
2021/09/19 00:28:51;;;;;;;5.53;1.73;;;;;;;23.91;41.08;100950.81;5072482;28;20029;-74
2021/09/19 00:31:16;;;;;;;5.32;1.83;;;;;;;23.88;41.02;100944.03;5072478;28;20486;-74
2021/09/19 00:33:42;;;;;;;5.38;1.92;;;;;;;23.89;41.20;100944.84;5072025;28;20035;-74
2021/09/19 00:36:08;;;;;;;5.88;2.58;;;;;;;23.80;40.99;100940.44;5071797;28;20040;-74
2021/09/19 00:38:33;;;;;;;7.13;2.00;;;;;;;23.88;40.55;100935.66;5071971;28;20028;-74
2021/09/19 00:41:00;;;;;;;7.57;2.83;;;;;;;23.86;40.96;100942.81;5071797;28;20103;-74
2021/09/19 00:43:25;;;;;;;5.43;2.03;;;;;;;23.88;40.61;100937.63;5071930;28;20032;-74
2021/09/19 00:45:51;;;;;;;5.45;2.13;;;;;;;23.90;40.56;100938.06;5071710;28;20490;-74
2021/09/19 00:48:16;;;;;;;4.55;1.83;;;;;;;23.96;40.11;100931.66;5071802;28;20028;-74
2021/09/19 00:50:42;;;;;;;5.60;2.15;;;;;;;23.98;39.93;100936.84;5071723;28;20066;-74
2021/09/19 00:53:09;;;;;;;4.93;1.70;;;;;;;23.97;40.22;100938.84;5071692;28;20060;-74
2021/09/19 00:55:35;;;;;;;3.92;1.80;;;;;;;24.01;39.96;100936.81;5071716;28;20024;-74
2021/09/19 00:58:05;;;;;;;6.22;2.22;;;;;;;24.06;39.94;100941.22;5071737;28;20046;-74
2021/09/19 01:00:31;;;;;;;3.35;1.42;;;;;;;24.14;39.96;100933.63;5071864;28;20387;-74
2021/09/19 01:02:57;;;;;;;5.95;2.08;;;;;;;24.11;39.83;100940.00;5071669;28;20031;-74
2021/09/19 01:05:23;;;;;;;7.00;2.80;;;;;;;24.18;39.84;100937.19;5071820;28;20024;-74
2021/09/19 01:07:50;;;;;;;4.15;1.73;;;;;;;24.07;40.08;100937.22;5071588;28;20024;-73
2021/09/19 01:10:18;;;;;;;4.13;1.70;;;;;;;24.06;40.01;100930.84;5068231;28;20021;-74
2021/09/19 01:12:44;;;;;;;4.05;1.42;;;;;;;24.12;40.03;100927.66;5072044;28;20024;-74
2021/09/19 01:15:12;;;;;;;4.90;2.17;;;;;;;24.16;39.69;100929.25;5072264;28;20028;-74
2021/09/19 01:17:39;;;;;;;4.82;1.85;;;;;;;24.18;39.89;100926.88;5072095;28;20028;-74
2021/09/19 01:20:09;;;;;;;10.25;1.95;;;;;;;24.19;39.62;100936.81;5072157;28;20483;-74
2021/09/19 01:22:38;;;;;;;5.75;1.85;;;;;;;24.25;39.61;100934.41;5071948;28;20063;-74
2021/09/19 01:25:07;;;;;;;7.47;1.65;;;;;;;24.25;39.86;100937.19;5071935;28;20445;-74
2021/09/19 01:27:33;;;;;;;6.20;1.75;;;;;;;24.28;39.37;100936.41;5071942;28;20466;-74
2021/09/19 01:29:59;;;;;;;4.22;1.60;;;;;;;24.28;39.44;100930.81;5072862;28;20082;-74
2021/09/19 01:32:25;;;;;;;3.30;1.45;;;;;;;24.24;39.91;100935.59;5075593;28;20029;-74
2021/09/19 01:34:52;;;;;;;9.60;2.38;;;;;;;24.28;39.59;100939.19;5075308;28;20059;-75
2021/09/19 01:37:19;;;;;;;5.78;1.98;;;;;;;24.27;39.51;100932.81;5075527;28;20029;-74
2021/09/19 01:39:45;;;;;;;3.67;1.52;;;;;;;23.94;40.43;100930.44;5075389;28;20024;-74
2021/09/19 01:42:12;;;;;;;3.47;1.65;;;;;;;23.84;40.52;100932.06;5075463;28;20036;-74
2021/09/19 01:44:39;;;;;;;6.53;1.95;;;;;;;23.66;41.69;100939.63;5075232;28;20036;-74
2021/09/19 01:47:04;;;;;;;11.10;2.70;;;;;;;23.85;41.48;100933.66;5075299;28;20029;-73
2021/09/19 01:49:30;;;;;;;6.63;1.98;;;;;;;23.72;42.25;100938.81;5075254;28;20114;-74
2021/09/19 01:51:56;;;;;;;4.75;1.40;;;;;;;23.82;41.92;100934.47;5075210;28;20028;-73
2021/09/19 01:54:22;;;;;;;7.15;1.58;;;;;;;23.83;42.16;100940.84;5075165;28;20104;-74
2021/09/19 01:56:48;;;;;;;5.90;2.03;;;;;;;23.92;42.22;100941.22;5075184;28;20538;-74
2021/09/19 01:59:13;;;;;;;5.78;2.30;;;;;;;23.96;41.94;100940.03;5075164;28;20029;-74
2021/09/19 02:01:39;;;;;;;4.47;2.03;;;;;;;24.02;41.98;100934.84;5075070;28;20051;-74
2021/09/19 02:04:04;;;;;;;9.60;4.65;;;;;;;24.00;42.18;100935.25;5073730;28;20033;-74
2021/09/19 02:06:30;;;;;;;4.57;2.15;;;;;;;24.02;42.19;100932.03;5074943;28;20029;-74
2021/09/19 02:08:55;;;;;;;6.55;1.92;;;;;;;24.07;42.45;100928.84;5074974;28;20492;-74
2021/09/19 02:11:22;;;;;;;6.25;2.13;;;;;;;24.09;42.44;100932.03;5074914;28;20024;-74
2021/09/19 02:13:49;;;;;;;3.40;1.60;;;;;;;24.12;42.19;100931.25;5074828;28;20060;-74
2021/09/19 02:16:20;;;;;;;7.90;2.28;;;;;;;24.15;42.10;100932.44;5074890;28;20052;-74
2021/09/19 02:18:47;;;;;;;6.53;2.35;;;;;;;24.11;42.58;100932.44;5074761;28;20050;-74
2021/09/19 02:21:13;;;;;;;5.13;1.83;;;;;;;24.06;42.55;100938.44;5074771;28;20030;-74
2021/09/19 02:23:39;;;;;;;6.47;2.25;;;;;;;24.14;42.63;100934.44;5074747;28;20021;-74
2021/09/19 02:26:05;;;;;;;5.75;2.28;;;;;;;24.07;42.57;100934.44;5074576;28;20028;-74
2021/09/19 02:28:31;;;;;;;6.65;2.20;;;;;;;24.13;42.55;100937.63;5074579;28;20025;-74
2021/09/19 02:30:56;;;;;;;6.25;2.00;;;;;;;24.09;42.90;100932.81;5074530;28;20021;-74
2021/09/19 02:33:22;;;;;;;6.88;1.80;;;;;;;24.14;42.78;100940.00;5074579;28;20021;-74
2021/09/19 02:35:48;;;;;;;6.18;2.25;;;;;;;24.10;42.72;100939.22;5074059;28;20055;-74
2021/09/19 02:38:13;;;;;;;7.05;2.00;;;;;;;24.11;42.65;100940.81;5073187;28;20032;-74
2021/09/19 02:40:39;;;;;;;5.50;1.92;;;;;;;24.12;42.76;100936.84;5072658;28;20404;-93
2021/09/19 02:43:05;;;;;;;5.63;1.95;;;;;;;24.13;42.81;100938.44;5073066;28;20501;-74
2021/09/19 02:45:30;;;;;;;5.53;1.63;;;;;;;24.11;42.61;100945.59;5074163;28;20028;-74
2021/09/19 02:47:56;;;;;;;11.73;2.63;;;;;;;23.83;43.58;100946.41;5074196;28;20082;-74
2021/09/19 02:50:24;;;;;;;6.43;2.03;;;;;;;23.94;43.16;100942.41;5074144;28;20062;-88
2021/09/19 02:52:50;;;;;;;3.58;1.88;;;;;;;23.95;43.32;100946.00;5074062;28;20050;-74
2021/09/19 02:55:17;;;;;;;5.45;1.83;;;;;;;23.87;43.40;100941.63;5073998;28;20115;-74
2021/09/19 02:57:43;;;;;;;5.10;1.90;;;;;;;23.91;43.18;100950.81;5074045;28;20055;-74
2021/09/19 03:00:12;;;;;;;8.55;2.10;;;;;;;23.88;43.65;100948.78;5073949;28;20028;-74
2021/09/19 03:02:38;;;;;;;6.07;1.67;;;;;;;23.82;43.33;100939.25;5073931;28;20025;-74
2021/09/19 03:05:05;;;;;;;4.88;1.85;;;;;;;23.60;44.40;100950.38;5073760;28;20277;-74
2021/09/19 03:07:31;;;;;;;3.75;1.85;;;;;;;23.80;43.86;100954.41;5073831;28;20386;-74
2021/09/19 03:09:57;;;;;;;5.93;2.50;;;;;;;23.79;43.64;100951.97;5073769;28;20024;-74
2021/09/19 03:12:22;;;;;;;4.60;2.53;;;;;;;23.79;43.47;100963.94;5073748;28;20078;-74
2021/09/19 03:14:48;;;;;;;5.30;2.33;;;;;;;23.78;43.74;100965.13;5073611;28;20043;-74
2021/09/19 03:17:14;;;;;;;7.70;2.53;;;;;;;23.72;43.72;100975.09;5073584;28;20033;-74
2021/09/19 03:19:39;;;;;;;9.35;3.03;;;;;;;23.76;43.77;100975.91;5073571;28;20367;-74
2021/09/19 03:22:05;;;;;;;8.48;2.67;;;;;;;23.67;44.12;100978.28;5073518;28;20029;-74
2021/09/19 03:24:31;;;;;;;4.18;2.10;;;;;;;23.40;44.85;100974.22;5073330;28;20399;-74
2021/09/19 03:26:56;;;;;;;5.70;2.17;;;;;;;23.59;44.35;100975.88;5073347;28;20020;-74
2021/09/19 03:29:22;;;;;;;7.47;2.72;;;;;;;23.53;44.43;100981.81;5073356;28;20024;-74
2021/09/19 03:31:47;;;;;;;6.28;2.50;;;;;;;23.63;44.06;100976.69;5073234;28;20027;-74
2021/09/19 03:34:13;;;;;;;4.30;2.03;;;;;;;23.71;44.28;100978.28;5073423;28;20043;-74
2021/09/19 03:36:39;;;;;;;6.15;2.40;;;;;;;23.73;43.84;100990.66;5071741;28;20056;-74
2021/09/19 03:39:05;;;;;;;6.28;2.20;;;;;;;23.66;44.34;100987.06;5072935;28;20499;-74
2021/09/19 03:41:31;;;;;;;7.05;2.50;;;;;;;23.64;44.31;101001.38;5073104;28;20025;-74
2021/09/19 03:43:58;;;;;;;4.95;2.35;;;;;;;23.59;44.53;100995.38;5073185;28;20024;-74
2021/09/19 03:46:25;;;;;;;6.30;2.78;;;;;;;23.58;44.58;100990.97;5072975;28;20479;-74
2021/09/19 03:48:50;;;;;;;5.95;2.40;;;;;;;23.45;44.89;100990.56;5073037;28;20032;-74
2021/09/19 03:51:16;;;;;;;7.63;3.35;;;;;;;23.42;44.63;100986.56;5073122;28;20050;-74
2021/09/19 03:53:42;;;;;;;5.90;3.55;;;;;;;23.43;44.77;100981.81;5072175;28;20070;-74
2021/09/19 03:56:07;;;;;;;7.20;2.92;;;;;;;23.41;44.63;100992.53;5072910;28;20035;-74
2021/09/19 03:58:33;;;;;;;8.48;4.10;;;;;;;23.38;44.86;100993.34;5072779;28;20603;-74
2021/09/19 04:00:58;;;;;;;7.60;3.95;;;;;;;23.23;44.93;100996.06;5072806;28;20032;-74
2021/09/19 04:03:24;;;;;;;6.90;3.65;;;;;;;23.24;44.98;100994.09;5072794;28;20112;-74
2021/09/19 04:05:49;;;;;;;7.55;4.00;;;;;;;23.36;44.59;101001.31;5072724;28;20146;-74
2021/09/19 04:08:15;;;;;;;7.30;3.75;;;;;;;23.38;44.53;100996.13;5072685;28;20032;-74
2021/09/19 04:10:41;;;;;;;6.38;4.13;;;;;;;23.34;44.29;101009.25;5072760;28;20054;-74
2021/09/19 04:13:06;;;;;;;8.52;4.20;;;;;;;23.35;44.36;100999.69;5072706;28;20017;-74
2021/09/19 04:15:32;;;;;;;7.80;4.18;;;;;;;23.19;44.59;100998.03;5072737;28;20017;-74
2021/09/19 04:17:57;;;;;;;6.88;4.20;;;;;;;23.24;44.34;101003.25;5072564;28;20117;-74
2021/09/19 04:20:23;;;;;;;6.57;3.75;;;;;;;23.07;45.14;101014.34;5072600;28;20395;-74
2021/09/19 04:22:49;;;;;;;7.60;4.75;;;;;;;23.03;45.10;101013.50;5072651;28;20052;-74
2021/09/19 04:25:14;;;;;;;9.13;4.75;;;;;;;22.87;45.66;101020.19;5072459;28;20037;-74
2021/09/19 04:27:40;;;;;;;8.77;4.65;;;;;;;22.79;45.70;101014.97;5072680;28;20113;-74
2021/09/19 04:30:07;;;;;;;6.18;4.13;;;;;;;22.76;45.53;101012.97;5072468;28;20071;-74
2021/09/19 04:32:34;;;;;;;6.88;4.22;;;;;;;22.73;45.88;101025.66;5071176;28;20418;-74
2021/09/19 04:34:59;;;;;;;6.00;4.50;;;;;;;22.63;46.08;101026.41;5072041;28;20086;-75
2021/09/19 04:37:25;;;;;;;6.97;4.93;;;;;;;22.51;46.57;101035.88;5071871;28;20036;-74
2021/09/19 04:39:50;;;;;;;5.90;4.43;;;;;;;22.63;46.15;101027.19;5070710;28;20037;-77
2021/09/19 04:42:16;;;;;;;8.55;4.80;;;;;;;22.83;45.24;101036.09;5071852;28;20449;-74
2021/09/19 04:44:42;;;;;;;5.38;4.50;;;;;;;22.88;45.53;101032.16;5071723;28;20059;-74
2021/09/19 04:47:08;;;;;;;6.78;4.20;;;;;;;22.77;45.76;101036.84;5071867;28;20417;-74
2021/09/19 04:49:34;;;;;;;7.85;4.05;;;;;;;22.81;45.86;101037.66;5071790;28;20395;-74
2021/09/19 04:52:00;;;;;;;5.05;3.95;;;;;;;22.83;45.79;101050.00;5071706;28;20054;-74
2021/09/19 04:54:27;;;;;;;8.75;4.00;;;;;;;22.70;46.24;101054.31;5071837;28;20029;-74
2021/09/19 04:56:53;;;;;;;5.65;3.40;;;;;;;22.79;45.63;101051.97;5071778;28;20099;-74
2021/09/19 04:59:19;;;;;;;6.05;3.15;;;;;;;22.79;45.76;101051.16;5071752;28;20028;-74
2021/09/19 05:01:44;;;;;;;5.55;3.47;;;;;;;22.68;46.16;101049.13;5071707;28;20078;-74
2021/09/19 05:04:10;;;;;;;5.65;3.30;;;;;;;22.69;46.01;101044.34;5073179;28;20032;-73
2021/09/19 05:06:35;;;;;;;7.97;3.40;;;;;;;22.70;46.09;101043.16;5075532;28;20024;-74
2021/09/19 05:09:02;;;;;;;5.90;2.92;;;;;;;22.77;45.70;101046.00;5074375;28;20124;-74
2021/09/19 05:11:28;;;;;;;6.28;3.78;;;;;;;22.82;45.24;101045.63;5074360;28;20483;-76
2021/09/19 05:13:54;;;;;;;8.02;3.60;;;;;;;22.78;45.35;101047.59;5076087;28;20044;-92
2021/09/19 05:16:19;;;;;;;5.60;3.38;;;;;;;22.86;45.11;101049.25;5074723;28;20498;-74
2021/09/19 05:18:45;;;;;;;4.35;3.17;;;;;;;22.73;45.08;101047.94;5075862;28;20040;-74
2021/09/19 05:21:11;;;;;;;5.22;3.30;;;;;;;22.65;45.43;101052.66;5075949;28;20021;-74
2021/09/19 05:23:36;;;;;;;6.72;3.58;;;;;;;22.24;46.35;101042.81;5075822;28;20028;-74
2021/09/19 05:26:02;;;;;;;9.73;3.80;;;;;;;22.55;45.19;101045.06;5075739;28;20039;-74
2021/09/19 05:28:28;;;;;;;9.07;4.35;;;;;;;22.62;45.09;101050.69;5075679;28;20031;-74
2021/09/19 05:30:54;;;;;;;9.43;3.53;;;;;;;22.53;45.28;101055.78;5075646;28;20029;-94
2021/09/19 05:33:20;;;;;;;6.93;4.07;;;;;;;22.48;45.19;101058.91;5075634;28;20032;-74
2021/09/19 05:35:46;;;;;;;7.07;3.40;;;;;;;22.54;45.18;101059.38;5075383;28;20048;-74
2021/09/19 05:38:12;;;;;;;8.52;4.07;;;;;;;22.65;44.72;101058.25;5075596;28;20391;-74
2021/09/19 05:40:38;;;;;;;6.63;3.75;;;;;;;22.52;45.28;101056.16;5075428;28;20040;-74
2021/09/19 05:43:05;;;;;;;7.35;4.07;;;;;;;22.54;44.91;101062.94;5075456;28;20025;-74
2021/09/19 05:45:32;;;;;;;6.10;3.58;;;;;;;22.48;45.00;101063.69;5075328;28;20395;-74
2021/09/19 05:47:57;;;;;;;6.72;3.45;;;;;;;22.55;44.77;101064.53;5075414;28;20086;-74
2021/09/19 05:50:24;;;;;;;7.65;3.70;;;;;;;22.48;45.01;101056.13;5075290;28;20037;-74
2021/09/19 05:52:49;;;;;;;5.78;3.70;;;;;;;22.38;45.00;101057.66;5075334;28;20028;-74
2021/09/19 05:55:15;;;;;;;8.90;3.55;;;;;;;22.47;45.05;101062.09;5074083;28;20535;-74
2021/09/19 05:57:41;;;;;;;5.57;3.38;;;;;;;22.39;45.20;101064.03;5075197;28;20454;-74
2021/09/19 06:00:08;;;;;;;6.13;3.55;;;;;;;22.50;44.81;101064.09;5073994;28;20036;-73
2021/09/19 06:02:33;;;;;;;9.13;3.72;;;;;;;22.25;45.24;101066.69;5075277;28;20029;-74
2021/09/19 06:04:59;;;;;;;6.10;3.22;;;;;;;22.22;45.58;101078.56;5075227;28;20370;-74
2021/09/19 06:07:25;;;;;;;7.53;3.08;;;;;;;22.30;45.33;101074.69;5075022;28;20115;-74
2021/09/19 06:09:52;;;;;;;5.07;3.00;;;;;;;22.35;45.14;101068.75;5075065;28;20129;-74
2021/09/19 06:12:18;;;;;;;7.47;3.30;;;;;;;22.37;44.83;101083.09;5075032;28;20025;-74
2021/09/19 06:14:43;;;;;;;7.88;3.55;;;;;;;22.29;45.38;101090.59;5074944;28;20028;-74
2021/09/19 06:17:09;;;;;;;5.60;2.80;;;;;;;22.29;45.24;101095.34;5072722;28;20028;-74
2021/09/19 06:19:35;;;;;;;7.68;3.45;;;;;;;22.32;44.92;101097.38;5074848;28;20494;-74
2021/09/19 06:22:01;;;;;;;4.80;2.80;;;;;;;22.33;44.88;101101.75;5074780;28;20032;-74
2021/09/19 06:24:31;;;;;;;6.50;2.80;;;;;;;22.32;44.99;101105.72;5074829;28;20111;-74
2021/09/19 06:26:58;;;;;;;6.03;2.80;;;;;;;22.35;44.73;101110.50;5074613;28;20398;-74
2021/09/19 06:29:25;;;;;;;9.68;2.90;;;;;;;22.30;44.92;101108.09;5074547;28;20036;-74
2021/09/19 06:31:50;;;;;;;6.72;2.60;;;;;;;22.27;45.21;101114.41;5074551;28;20055;-74
2021/09/19 06:34:16;;;;;;;4.78;2.80;;;;;;;22.15;45.88;101121.88;5074793;28;20052;-74
2021/09/19 06:36:42;;;;;;;8.38;3.20;;;;;;;22.21;45.84;101122.31;5074081;28;20120;-74
2021/09/19 06:39:08;;;;;;;8.10;3.20;;;;;;;22.23;46.08;101130.31;5074562;28;20075;-74
2021/09/19 06:41:34;;;;;;;7.13;3.55;;;;;;;22.31;46.04;101134.75;5074370;28;20040;-79
2021/09/19 06:43:59;;;;;;;4.40;2.20;;;;;;;22.30;46.37;101147.06;5074364;28;20025;-79
2021/09/19 06:46:29;;;;;;;8.95;3.30;;;;;;;22.31;46.36;101145.88;5074207;28;20635;-78
2021/09/19 06:48:56;;;;;;;6.57;3.10;;;;;;;22.49;46.07;101144.03;5074520;28;20107;-76
2021/09/19 06:51:23;;;;;;;7.00;2.83;;;;;;;22.30;46.54;101144.28;5074380;28;20021;-74
2021/09/19 06:53:49;;;;;;;10.95;3.47;;;;;;;22.34;46.42;101153.44;5074379;28;20490;-75
2021/09/19 06:56:14;;;;;;;9.15;3.70;;;;;;;22.11;46.94;101148.84;5074502;28;20025;-89
2021/09/19 06:58:40;;;;;;;6.07;3.05;;;;;;;22.10;46.94;101158.38;5055242;28;20029;-74
2021/09/19 07:01:07;;;;;;;10.23;2.85;;;;;;;22.05;47.33;101164.25;5054078;28;20017;-76
2021/09/19 07:03:33;;;;;;;7.53;3.00;;;;;;;22.31;46.56;101165.38;5053963;28;20021;-75
2021/09/19 07:05:59;;;;;;;5.95;2.90;;;;;;;22.29;46.75;101174.09;5054158;28;20442;-75
2021/09/19 07:08:25;;;;;;;8.38;2.92;;;;;;;22.22;47.11;101176.81;5053760;28;20025;-76
2021/09/19 07:10:50;;;;;;;9.13;2.88;;;;;;;22.38;46.49;101182.94;5053829;28;20055;-75
2021/09/19 07:13:16;;;;;;;6.20;2.70;;;;;;;22.48;46.21;101181.44;5053816;28;20053;-76
2021/09/19 07:15:43;;;;;;;9.68;3.15;;;;;;;22.55;46.07;101175.94;5053777;28;20037;-82
2021/09/19 07:18:12;;;;;;;11.95;2.75;;;;;;;22.25;47.16;101176.03;5053716;28;20024;-75
2021/09/19 07:20:38;;;;;;;6.50;1.90;;;;;;;22.22;47.27;101184.34;5053768;28;20029;-80
2021/09/19 07:23:03;;;;;;;8.15;2.30;;;;;;;22.51;46.41;101182.63;5053600;28;20032;-84
2021/09/19 07:25:29;;;;;;;4.53;2.08;;;;;;;22.46;46.59;101196.94;5053548;28;20032;-75
2021/09/19 07:27:55;;;;;;;3.67;2.05;;;;;;;22.61;46.24;101195.88;5052243;28;20029;-75
2021/09/19 07:30:21;;;;;;;8.52;2.10;;;;;;;22.59;46.31;101196.25;5053414;28;20434;-75
2021/09/19 07:32:46;;;;;;;8.40;2.75;;;;;;;22.68;46.42;101202.31;5053479;28;20029;-84
2021/09/19 07:35:12;;;;;;;7.05;1.83;;;;;;;22.79;46.22;101209.97;5053330;28;20048;-74
2021/09/19 07:37:38;;;;;;;8.07;1.73;;;;;;;22.69;46.37;101203.91;5053288;28;20048;-74
2021/09/19 07:40:04;;;;;;;5.60;1.98;;;;;;;22.86;45.94;101210.03;5053392;28;20021;-79
2021/09/19 07:42:30;;;;;;;14.07;2.47;;;;;;;22.83;46.10;101210.81;5050485;28;20035;-75
2021/09/19 07:44:56;;;;;;;5.50;2.08;;;;;;;22.82;46.04;101214.75;5061857;28;20037;-75
2021/09/19 07:47:25;;;;;;;6.47;1.70;;;;;;;22.77;46.49;101217.91;5072952;28;20039;-75
2021/09/19 07:49:51;;;;;;;7.07;1.95;;;;;;;22.96;45.86;101223.25;5071796;28;20029;-75
2021/09/19 07:52:18;;;;;;;6.53;1.85;;;;;;;23.14;45.88;101234.56;5073045;28;20075;-75
2021/09/19 07:54:44;;;;;;;6.00;2.17;;;;;;;23.17;46.02;101226.22;5073244;28;20021;-91
2021/09/19 07:57:09;;;;;;;5.15;1.77;;;;;;;23.11;45.97;101233.34;5073391;28;20475;-89
2021/09/19 07:59:35;;;;;;;4.93;1.92;;;;;;;23.16;45.44;101240.53;5069791;28;20391;-73
2021/09/19 08:02:01;;;;;;;6.35;2.15;;;;;;;23.46;45.20;101234.78;5057372;28;20514;-72
2021/09/19 08:04:26;;;;;;;5.38;1.88;;;;;;;23.39;44.98;101251.47;5056802;28;20091;-71
2021/09/19 08:06:52;;;;;;;5.47;1.65;;;;;;;23.52;44.74;101250.75;5054640;28;20036;-85
2021/09/19 08:09:17;;;;;;;8.02;2.10;;;;;;;23.46;44.83;101254.28;5051799;28;20051;-80
2021/09/19 08:11:43;;;;;;;9.65;3.00;;;;;;;23.75;44.34;101244.94;5055497;28;20051;-80
2021/09/19 08:14:08;;;;;;;8.90;2.15;;;;;;;23.73;44.02;101247.31;5057484;28;20081;-83
2021/09/19 08:16:36;;;;;;;5.43;1.88;;;;;;;23.60;44.68;101259.16;5050229;28;20099;-77
2021/09/19 08:19:03;;;;;;;4.32;2.03;;;;;;;23.74;44.19;101260.09;5043155;28;20035;-84
2021/09/19 08:21:28;;;;;;;11.32;2.58;;;;;;;23.87;43.81;101256.94;5048833;28;20028;-81
2021/09/19 08:23:54;;;;;;;12.65;2.50;;;;;;;24.18;43.41;101259.09;5037174;28;20529;-79
2021/09/19 08:26:20;;;;;;;6.15;4.03;;;;;;;23.69;44.13;101271.59;5083028;28;20024;-77
2021/09/19 08:28:45;;;;;;;9.18;2.20;;;;;;;24.09;42.78;101264.22;5055812;28;20043;-75
2021/09/19 08:31:11;;;;;;;21.70;2.88;;;;;;;24.02;43.03;101269.75;5055319;28;20020;-76
2021/09/19 08:33:37;;;;;;;10.15;2.83;;;;;;;24.18;42.93;101278.63;5065765;28;20132;-78
2021/09/19 08:36:02;;;;;;;11.25;1.95;;;;;;;24.14;42.91;101277.00;5062915;28;20041;-79
2021/09/19 08:38:28;;;;;;;7.05;1.83;;;;;;;24.17;42.47;101285.38;5055720;28;20037;-80
2021/09/19 08:40:54;;;;;;;9.77;1.90;;;;;;;24.18;42.42;101287.00;5054163;28;20043;-81
2021/09/19 08:43:19;;;;;;;6.97;1.58;;;;;;;24.19;42.60;101285.81;5058811;28;20067;-77
2021/09/19 08:45:47;;;;;;;10.35;2.42;;;;;;;24.08;42.38;101293.31;5059385;28;20028;-82
2021/09/19 08:48:15;;;;;;;13.68;2.78;;;;;;;24.05;42.93;101299.69;5054850;28;20705;-79
2021/09/19 08:50:41;;;;;;;8.82;2.40;;;;;;;23.96;43.07;101304.84;5072956;28;20021;-80
2021/09/19 08:53:07;;;;;;;13.77;2.80;;;;;;;24.15;42.60;101310.09;5060268;28;20043;-79
2021/09/19 08:55:32;;;;;;;9.18;2.42;;;;;;;24.14;42.89;101307.72;5057762;28;20017;-80
2021/09/19 08:57:58;;;;;;;5.88;2.10;;;;;;;23.74;43.52;101313.09;5054772;28;20017;-83
2021/09/19 09:00:23;;;;;;;9.63;3.03;;;;;;;23.75;43.36;101316.69;5056753;28;20033;-82
2021/09/19 09:02:54;;;;;;;11.15;2.45;;;;;;;24.08;42.45;101316.47;5060392;28;20155;-92
2021/09/19 09:05:26;;;;;;;9.63;2.42;;;;;;;23.93;42.41;101320.38;5070068;28;20029;-92
2021/09/19 09:07:53;;;;;;;16.10;3.05;;;;;;;24.49;41.53;101323.84;5069519;28;20096;-80
2021/09/19 09:10:49;;;;;;;6.00;1.60;;;;;;;24.37;41.51;101336.16;5069517;28;20052;-78
2021/09/19 09:13:19;;;;;;;6.07;2.35;;;;;;;24.46;41.56;101331.00;5057218;28;20394;-78
2021/09/19 09:15:46;;;;;;;;;;;;;;;24.75;41.20;101325.50;5069286;28;20021;-82
2021/09/19 09:18:14;;;;;;;8.80;2.70;;;;;;;24.99;40.75;101327.53;5060754;28;19912;-78
2021/09/19 09:20:47;;;;;;;9.52;1.92;;;;;;;25.16;40.57;101325.97;5057785;28;20415;-78
2021/09/19 09:23:45;;;;;;;15.45;3.70;;;;;;;24.71;41.18;101324.69;5066016;28;20017;-78
2021/09/19 09:26:24;;;;;;;21.70;3.42;;;;;;;25.28;40.20;101330.38;5057258;28;20032;-85
2021/09/19 09:29:07;;;;;;;9.07;1.77;;;;;;;25.18;39.99;101341.19;5066115;28;20108;-79
2021/09/19 09:31:47;;;;;;;7.95;2.25;;;;;;;25.13;40.24;101333.19;5062658;28;20028;-79
2021/09/19 09:34:14;;;;;;;10.32;2.35;;;;;;;24.93;40.40;101331.91;5062824;28;20394;-84
2021/09/19 09:36:44;;;;;;;11.05;2.65;;;;;;;25.33;39.15;101338.38;5069405;28;20048;-88
2021/09/19 09:39:24;;;;;;;8.38;2.25;;;;;;;24.74;39.81;101341.47;5055989;28;20040;-85
2021/09/19 09:41:50;;;;;;;9.43;2.08;;;;;;;25.23;39.34;101339.97;5064820;28;20020;-84
2021/09/19 09:44:39;;;;;;;13.55;2.45;;;;;;;25.26;39.09;101353.16;5068180;28;20037;-78
2021/09/19 09:47:12;;;;;;;9.43;1.92;;;;;;;25.33;38.49;101352.38;5060112;28;20498;-88
2021/09/19 09:49:46;;;;;;;8.82;1.83;;;;;;;25.55;38.42;101344.78;5049603;28;20040;-83
2021/09/19 09:52:16;;;;;;;11.63;2.38;;;;;;;25.40;38.57;101339.19;5069679;28;20031;-91
2021/09/19 09:54:47;;;;;;;9.35;2.10;;;;;;;25.41;38.37;101337.97;5069999;28;20032;-81
2021/09/19 09:57:22;;;;;;;14.02;2.67;;;;;;;25.48;38.06;101341.97;5061856;28;20021;-78
2021/09/19 09:59:50;;;;;;;3.70;1.35;;;;;;;25.64;38.10;101350.75;5062264;28;20714;-81
2021/09/19 10:02:18;;;;;;;8.18;1.45;;;;;;;25.59;37.83;101348.34;5058749;28;20029;-78
2021/09/19 10:04:44;;;;;;;4.90;1.40;;;;;;;25.73;37.43;101351.16;5061870;28;20048;-78
2021/09/19 10:07:11;;;;;;;12.60;2.60;;;;;;;25.88;37.03;101357.53;5067621;28;20032;-79
2021/09/19 10:09:37;;;;;;;9.10;2.08;;;;;;;25.97;37.15;101364.31;5071424;28;20498;-79
2021/09/19 10:12:03;;;;;;;6.95;1.50;;;;;;;25.95;36.87;101361.13;5070975;28;20047;-77
2021/09/19 10:14:29;;;;;;;8.90;1.80;;;;;;;25.86;36.30;101368.34;5071790;28;20019;-76
2021/09/19 10:16:55;;;;;;;7.50;1.55;;;;;;;26.08;35.93;101371.91;5068873;28;20040;-75
2021/09/19 10:19:20;;;;;;;8.48;1.95;;;;;;;26.13;36.09;101372.28;5059844;28;20021;-74
2021/09/19 10:21:48;;;;;;;11.68;2.00;;;;;;;26.13;35.98;101371.47;5061760;28;20028;-74
2021/09/19 10:24:15;;;;;;;8.70;1.50;;;;;;;26.32;35.92;101384.22;5059920;28;20017;-75
2021/09/19 10:26:56;;;;;;;11.23;2.05;;;;;;;26.45;35.68;101379.78;5059947;28;20071;-77
2021/09/19 10:29:27;;;;;;;11.85;1.98;;;;;;;26.70;35.31;101376.88;5086405;28;20021;-74
2021/09/19 10:31:56;;;;;;;10.88;1.88;;;;;;;26.55;35.35;101384.56;5067257;28;20032;-75
2021/09/19 10:34:31;;;;;;;12.68;1.92;;;;;;;26.79;34.62;101377.22;5067759;28;20025;-76
2021/09/19 10:36:58;;;;;;;7.97;1.38;;;;;;;26.87;35.08;101381.59;5070788;28;20529;-76
2021/09/19 10:39:51;;;;;;;10.25;2.70;;;;;;;27.13;34.74;101373.84;5073093;28;20035;-76
2021/09/19 10:42:20;;;;;;;11.48;2.33;;;;;;;27.53;34.10;101378.75;5071339;28;20074;-75
2021/09/19 10:44:45;;;;;;;5.93;1.77;;;;;;;26.52;34.18;101385.38;5073011;28;20036;-79
2021/09/19 10:47:27;;;;;;;3.25;1.25;;;;;;;26.58;33.63;101389.34;5072822;28;20085;-76
2021/09/19 10:50:13;;;;;;;5.82;1.75;;;;;;;27.08;33.49;101387.09;5061945;28;20025;-76
2021/09/19 10:52:41;;;;;;;7.53;1.67;;;;;;;27.14;33.53;101393.09;5054284;28;20484;-75
2021/09/19 10:55:29;;;;;;;8.40;2.42;;;;;;;27.38;32.86;101382.88;5054112;28;20021;-75
2021/09/19 10:58:06;;;;;;;6.50;1.70;;;;;;;27.61;32.52;101394.31;5054187;28;20040;-85
2021/09/19 11:00:36;;;;;;;23.95;3.45;;;;;;;27.59;33.08;101391.13;5054454;28;20033;-83
2021/09/19 11:03:04;;;;;;;5.57;1.30;;;;;;;27.72;32.58;101390.63;5052520;28;20383;-79
2021/09/19 11:05:32;;;;;;;3.92;1.25;;;;;;;27.46;32.46;101392.03;5052788;28;20075;-80
2021/09/19 11:08:23;;;;;;;6.45;1.60;;;;;;;27.27;31.42;101398.97;5053994;28;20108;-79
2021/09/19 11:11:02;;;;;;;6.30;1.63;;;;;;;27.33;31.10;101405.75;5030498;28;20119;-78
2021/09/19 11:13:57;;;;;;;5.45;1.30;;;;;;;27.25;31.14;101409.81;5054083;28;20025;-78
2021/09/19 11:16:26;;;;;;;3.05;0.85;;;;;;;27.40;30.78;101397.28;5044019;28;20040;-79
2021/09/19 11:18:55;;;;;;;13.13;2.08;;;;;;;27.73;30.54;101403.44;5058746;28;20025;-78
2021/09/19 11:21:21;;;;;;;5.72;1.73;;;;;;;27.61;30.88;101404.75;5073903;28;20509;-78
2021/09/19 11:23:48;;;;;;;12.77;2.25;;;;;;;27.70;30.79;101395.88;5073645;28;20111;-79
2021/09/19 11:26:17;;;;;;;6.82;1.17;;;;;;;27.76;30.44;101403.44;5073294;28;20033;-79